sensor_id;sensor_type;location;lat;lon;timestamp;P1;durP1;ratioP1;P2;durP2;ratioP2
75044;SDS011;63614;56.026;35.960;2023-05-29T00:01:33;10.55;;;5.22;;
75044;SDS011;63614;56.026;35.960;2023-05-29T00:03:59;10.05;;;4.47;;
75044;SDS011;63614;56.026;35.960;2023-05-29T00:06:27;6.50;;;4.60;;
75044;SDS011;63614;56.026;35.960;2023-05-29T00:08:55;8.02;;;4.75;;
75044;SDS011;63614;56.026;35.960;2023-05-29T00:11:22;13.00;;;4.85;;
75044;SDS011;63614;56.026;35.960;2023-05-29T00:13:48;9.48;;;4.85;;
75044;SDS011;63614;56.026;35.960;2023-05-29T00:16:14;21.30;;;5.35;;
75044;SDS011;63614;56.026;35.960;2023-05-29T00:18:40;6.95;;;4.47;;
75044;SDS011;63614;56.026;35.960;2023-05-29T00:21:11;12.63;;;4.30;;
75044;SDS011;63614;56.026;35.960;2023-05-29T00:23:39;11.80;;;4.07;;
75044;SDS011;63614;56.026;35.960;2023-05-29T00:26:05;13.70;;;4.55;;
75044;SDS011;63614;56.026;35.960;2023-05-29T00:28:31;11.40;;;4.28;;
75044;SDS011;63614;56.026;35.960;2023-05-29T00:30:57;8.38;;;4.15;;
75044;SDS011;63614;56.026;35.960;2023-05-29T00:33:22;8.63;;;4.60;;
75044;SDS011;63614;56.026;35.960;2023-05-29T00:35:48;7.70;;;4.25;;
75044;SDS011;63614;56.026;35.960;2023-05-29T00:38:14;8.50;;;4.25;;
75044;SDS011;63614;56.026;35.960;2023-05-29T00:40:40;8.98;;;4.25;;
75044;SDS011;63614;56.026;35.960;2023-05-29T00:43:05;12.85;;;4.68;;
75044;SDS011;63614;56.026;35.960;2023-05-29T00:45:31;9.07;;;4.45;;
75044;SDS011;63614;56.026;35.960;2023-05-29T00:48:02;8.98;;;4.10;;
75044;SDS011;63614;56.026;35.960;2023-05-29T00:50:28;8.38;;;4.07;;
75044;SDS011;63614;56.026;35.960;2023-05-29T00:52:55;9.70;;;4.32;;
75044;SDS011;63614;56.026;35.960;2023-05-29T00:55:21;9.73;;;4.10;;
75044;SDS011;63614;56.026;35.960;2023-05-29T00:57:48;9.30;;;4.40;;
75044;SDS011;63614;56.026;35.960;2023-05-29T01:00:14;6.93;;;4.25;;
75044;SDS011;63614;56.026;35.960;2023-05-29T01:02:43;10.88;;;3.90;;
75044;SDS011;63614;56.026;35.960;2023-05-29T01:07:37;9.38;;;3.88;;
75044;SDS011;63614;56.026;35.960;2023-05-29T01:10:04;5.55;;;3.53;;
75044;SDS011;63614;56.026;35.960;2023-05-29T01:17:50;8.52;;;4.22;;
75044;SDS011;63614;56.026;35.960;2023-05-29T01:20:53;5.88;;;3.55;;
75044;SDS011;63614;56.026;35.960;2023-05-29T01:23:38;8.68;;;3.70;;
75044;SDS011;63614;56.026;35.960;2023-05-29T01:26:21;9.85;;;4.38;;
75044;SDS011;63614;56.026;35.960;2023-05-29T01:28:55;5.82;;;3.78;;
75044;SDS011;63614;56.026;35.960;2023-05-29T01:31:25;9.10;;;3.70;;
75044;SDS011;63614;56.026;35.960;2023-05-29T01:33:55;8.68;;;3.97;;
75044;SDS011;63614;56.026;35.960;2023-05-29T01:36:22;8.38;;;4.20;;
75044;SDS011;63614;56.026;35.960;2023-05-29T01:38:49;9.38;;;4.03;;
75044;SDS011;63614;56.026;35.960;2023-05-29T01:41:16;10.48;;;3.80;;
75044;SDS011;63614;56.026;35.960;2023-05-29T01:43:43;14.90;;;4.17;;
75044;SDS011;63614;56.026;35.960;2023-05-29T01:46:11;11.98;;;3.70;;
75044;SDS011;63614;56.026;35.960;2023-05-29T01:48:43;7.25;;;3.83;;
75044;SDS011;63614;56.026;35.960;2023-05-29T01:51:10;7.00;;;3.72;;
75044;SDS011;63614;56.026;35.960;2023-05-29T01:53:37;7.60;;;3.45;;
75044;SDS011;63614;56.026;35.960;2023-05-29T01:56:04;13.38;;;4.13;;
75044;SDS011;63614;56.026;35.960;2023-05-29T01:58:32;12.38;;;3.60;;
75044;SDS011;63614;56.026;35.960;2023-05-29T02:00:58;9.13;;;3.97;;
75044;SDS011;63614;56.026;35.960;2023-05-29T02:03:25;9.88;;;3.72;;
75044;SDS011;63614;56.026;35.960;2023-05-29T02:05:54;5.88;;;3.95;;
75044;SDS011;63614;56.026;35.960;2023-05-29T02:08:21;11.63;;;3.70;;
75044;SDS011;63614;56.026;35.960;2023-05-29T02:10:47;7.95;;;3.53;;
75044;SDS011;63614;56.026;35.960;2023-05-29T02:13:13;9.95;;;4.05;;
75044;SDS011;63614;56.026;35.960;2023-05-29T02:15:39;15.88;;;3.90;;
75044;SDS011;63614;56.026;35.960;2023-05-29T02:18:05;9.18;;;3.90;;
75044;SDS011;63614;56.026;35.960;2023-05-29T02:20:31;14.52;;;3.70;;
75044;SDS011;63614;56.026;35.960;2023-05-29T02:22:57;7.38;;;3.70;;
75044;SDS011;63614;56.026;35.960;2023-05-29T02:25:24;10.10;;;3.77;;
75044;SDS011;63614;56.026;35.960;2023-05-29T02:27:50;9.25;;;3.55;;
75044;SDS011;63614;56.026;35.960;2023-05-29T02:30:15;7.00;;;3.30;;
75044;SDS011;63614;56.026;35.960;2023-05-29T02:32:41;9.35;;;3.95;;
75044;SDS011;63614;56.026;35.960;2023-05-29T02:35:07;9.88;;;3.67;;
75044;SDS011;63614;56.026;35.960;2023-05-29T02:37:34;7.03;;;3.72;;
75044;SDS011;63614;56.026;35.960;2023-05-29T02:40:00;8.40;;;4.22;;
75044;SDS011;63614;56.026;35.960;2023-05-29T02:42:28;8.57;;;4.05;;
75044;SDS011;63614;56.026;35.960;2023-05-29T02:44:53;9.75;;;3.67;;
75044;SDS011;63614;56.026;35.960;2023-05-29T02:47:19;12.65;;;3.78;;
75044;SDS011;63614;56.026;35.960;2023-05-29T02:49:45;9.50;;;3.90;;
75044;SDS011;63614;56.026;35.960;2023-05-29T02:52:11;8.00;;;4.22;;
75044;SDS011;63614;56.026;35.960;2023-05-29T02:54:37;8.52;;;3.70;;
75044;SDS011;63614;56.026;35.960;2023-05-29T02:57:03;6.95;;;3.45;;
75044;SDS011;63614;56.026;35.960;2023-05-29T02:59:33;11.48;;;3.50;;
75044;SDS011;63614;56.026;35.960;2023-05-29T03:01:58;5.88;;;3.60;;
75044;SDS011;63614;56.026;35.960;2023-05-29T03:04:24;6.38;;;3.20;;
75044;SDS011;63614;56.026;35.960;2023-05-29T03:06:51;6.60;;;3.20;;
75044;SDS011;63614;56.026;35.960;2023-05-29T03:09:18;12.32;;;3.53;;
75044;SDS011;63614;56.026;35.960;2023-05-29T03:11:44;4.65;;;3.40;;
75044;SDS011;63614;56.026;35.960;2023-05-29T03:14:10;6.38;;;3.22;;
75044;SDS011;63614;56.026;35.960;2023-05-29T03:16:36;6.35;;;3.75;;
75044;SDS011;63614;56.026;35.960;2023-05-29T03:19:04;8.35;;;3.78;;
75044;SDS011;63614;56.026;35.960;2023-05-29T03:21:29;8.93;;;3.33;;
75044;SDS011;63614;56.026;35.960;2023-05-29T03:23:57;6.30;;;3.60;;
75044;SDS011;63614;56.026;35.960;2023-05-29T03:26:26;7.67;;;3.73;;
75044;SDS011;63614;56.026;35.960;2023-05-29T03:28:52;9.80;;;4.00;;
75044;SDS011;63614;56.026;35.960;2023-05-29T03:31:18;15.80;;;4.87;;
75044;SDS011;63614;56.026;35.960;2023-05-29T03:33:44;8.20;;;4.20;;
75044;SDS011;63614;56.026;35.960;2023-05-29T03:36:33;7.75;;;3.72;;
75044;SDS011;63614;56.026;35.960;2023-05-29T03:39:02;10.48;;;3.60;;
75044;SDS011;63614;56.026;35.960;2023-05-29T03:41:28;5.45;;;2.92;;
75044;SDS011;63614;56.026;35.960;2023-05-29T03:43:54;9.45;;;3.33;;
75044;SDS011;63614;56.026;35.960;2023-05-29T03:46:22;12.38;;;3.30;;
75044;SDS011;63614;56.026;35.960;2023-05-29T03:48:48;8.93;;;3.10;;
75044;SDS011;63614;56.026;35.960;2023-05-29T03:51:14;8.63;;;2.50;;
75044;SDS011;63614;56.026;35.960;2023-05-29T03:53:40;5.13;;;2.70;;
75044;SDS011;63614;56.026;35.960;2023-05-29T03:56:07;6.20;;;3.08;;
75044;SDS011;63614;56.026;35.960;2023-05-29T03:58:33;6.45;;;2.95;;
75044;SDS011;63614;56.026;35.960;2023-05-29T04:01:00;7.97;;;3.05;;
75044;SDS011;63614;56.026;35.960;2023-05-29T04:03:28;10.85;;;3.45;;
75044;SDS011;63614;56.026;35.960;2023-05-29T04:05:54;5.55;;;2.92;;
75044;SDS011;63614;56.026;35.960;2023-05-29T04:08:21;4.55;;;2.90;;
75044;SDS011;63614;56.026;35.960;2023-05-29T04:10:46;4.83;;;2.87;;
75044;SDS011;63614;56.026;35.960;2023-05-29T04:13:12;6.77;;;2.53;;
75044;SDS011;63614;56.026;35.960;2023-05-29T04:15:38;4.70;;;2.53;;
75044;SDS011;63614;56.026;35.960;2023-05-29T04:18:04;6.53;;;2.47;;
75044;SDS011;63614;56.026;35.960;2023-05-29T04:20:29;8.17;;;2.70;;
75044;SDS011;63614;56.026;35.960;2023-05-29T04:22:57;4.68;;;1.90;;
75044;SDS011;63614;56.026;35.960;2023-05-29T04:25:23;6.50;;;2.60;;
75044;SDS011;63614;56.026;35.960;2023-05-29T04:27:49;8.60;;;3.00;;
75044;SDS011;63614;56.026;35.960;2023-05-29T04:30:18;12.38;;;3.30;;
75044;SDS011;63614;56.026;35.960;2023-05-29T04:32:46;5.80;;;2.63;;
75044;SDS011;63614;56.026;35.960;2023-05-29T04:35:12;4.18;;;2.72;;
75044;SDS011;63614;56.026;35.960;2023-05-29T04:37:45;5.97;;;2.67;;
75044;SDS011;63614;56.026;35.960;2023-05-29T04:40:12;8.52;;;3.03;;
75044;SDS011;63614;56.026;35.960;2023-05-29T04:42:56;9.82;;;2.95;;
75044;SDS011;63614;56.026;35.960;2023-05-29T04:45:27;5.60;;;2.75;;
75044;SDS011;63614;56.026;35.960;2023-05-29T04:47:53;5.10;;;2.60;;
75044;SDS011;63614;56.026;35.960;2023-05-29T04:50:21;4.75;;;2.50;;
75044;SDS011;63614;56.026;35.960;2023-05-29T04:53:06;6.00;;;2.78;;
75044;SDS011;63614;56.026;35.960;2023-05-29T04:55:34;6.78;;;2.20;;
75044;SDS011;63614;56.026;35.960;2023-05-29T04:58:00;5.90;;;2.70;;
75044;SDS011;63614;56.026;35.960;2023-05-29T05:00:26;5.20;;;3.00;;
75044;SDS011;63614;56.026;35.960;2023-05-29T05:02:52;4.13;;;2.40;;
75044;SDS011;63614;56.026;35.960;2023-05-29T05:05:18;6.03;;;2.63;;
75044;SDS011;63614;56.026;35.960;2023-05-29T05:07:44;5.17;;;2.33;;
75044;SDS011;63614;56.026;35.960;2023-05-29T05:10:10;16.67;;;3.05;;
75044;SDS011;63614;56.026;35.960;2023-05-29T05:12:37;10.68;;;2.88;;
75044;SDS011;63614;56.026;35.960;2023-05-29T05:17:47;8.20;;;2.45;;
75044;SDS011;63614;56.026;35.960;2023-05-29T05:20:13;6.83;;;2.33;;
75044;SDS011;63614;56.026;35.960;2023-05-29T05:22:57;7.18;;;2.28;;
75044;SDS011;63614;56.026;35.960;2023-05-29T05:25:42;6.22;;;1.95;;
75044;SDS011;63614;56.026;35.960;2023-05-29T05:28:08;12.30;;;2.53;;
75044;SDS011;63614;56.026;35.960;2023-05-29T05:30:35;4.78;;;2.50;;
75044;SDS011;63614;56.026;35.960;2023-05-29T05:33:01;3.70;;;2.10;;
75044;SDS011;63614;56.026;35.960;2023-05-29T05:35:26;3.97;;;2.60;;
75044;SDS011;63614;56.026;35.960;2023-05-29T05:40:19;9.73;;;2.33;;
75044;SDS011;63614;56.026;35.960;2023-05-29T05:42:55;5.45;;;2.15;;
75044;SDS011;63614;56.026;35.960;2023-05-29T05:45:32;3.25;;;1.95;;
75044;SDS011;63614;56.026;35.960;2023-05-29T05:47:59;10.20;;;2.00;;
75044;SDS011;63614;56.026;35.960;2023-05-29T05:50:26;5.00;;;1.65;;
75044;SDS011;63614;56.026;35.960;2023-05-29T05:52:52;3.77;;;2.20;;
75044;SDS011;63614;56.026;35.960;2023-05-29T05:55:18;13.57;;;2.00;;
75044;SDS011;63614;56.026;35.960;2023-05-29T05:57:44;4.68;;;1.70;;
75044;SDS011;63614;56.026;35.960;2023-05-29T06:00:09;6.50;;;1.73;;
75044;SDS011;63614;56.026;35.960;2023-05-29T06:02:42;3.17;;;1.42;;
75044;SDS011;63614;56.026;35.960;2023-05-29T06:05:10;11.18;;;1.80;;
75044;SDS011;63614;56.026;35.960;2023-05-29T06:10:03;2.75;;;1.20;;
75044;SDS011;63614;56.026;35.960;2023-05-29T06:12:29;4.22;;;1.17;;
75044;SDS011;63614;56.026;35.960;2023-05-29T06:15:05;7.22;;;1.25;;
75044;SDS011;63614;56.026;35.960;2023-05-29T06:17:31;6.15;;;1.00;;
75044;SDS011;63614;56.026;35.960;2023-05-29T06:19:57;4.27;;;1.10;;
75044;SDS011;63614;56.026;35.960;2023-05-29T06:22:23;1.70;;;1.00;;
75044;SDS011;63614;56.026;35.960;2023-05-29T06:24:49;7.30;;;1.27;;
75044;SDS011;63614;56.026;35.960;2023-05-29T06:27:15;7.03;;;1.10;;
75044;SDS011;63614;56.026;35.960;2023-05-29T06:29:41;5.60;;;1.20;;
75044;SDS011;63614;56.026;35.960;2023-05-29T06:32:07;4.40;;;1.15;;
75044;SDS011;63614;56.026;35.960;2023-05-29T06:34:33;7.10;;;0.90;;
75044;SDS011;63614;56.026;35.960;2023-05-29T06:36:58;3.15;;;1.05;;
75044;SDS011;63614;56.026;35.960;2023-05-29T06:39:24;3.15;;;1.10;;
75044;SDS011;63614;56.026;35.960;2023-05-29T06:41:50;2.17;;;0.88;;
75044;SDS011;63614;56.026;35.960;2023-05-29T06:44:17;6.15;;;1.40;;
75044;SDS011;63614;56.026;35.960;2023-05-29T06:46:43;5.90;;;1.00;;
75044;SDS011;63614;56.026;35.960;2023-05-29T06:49:09;3.97;;;1.27;;
75044;SDS011;63614;56.026;35.960;2023-05-29T06:51:35;1.73;;;1.00;;
75044;SDS011;63614;56.026;35.960;2023-05-29T06:54:22;8.63;;;1.20;;
75044;SDS011;63614;56.026;35.960;2023-05-29T06:56:47;6.25;;;1.13;;
75044;SDS011;63614;56.026;35.960;2023-05-29T06:59:13;5.90;;;1.20;;
75044;SDS011;63614;56.026;35.960;2023-05-29T07:01:39;1.75;;;1.00;;
75044;SDS011;63614;56.026;35.960;2023-05-29T07:04:05;6.13;;;1.02;;
75044;SDS011;63614;56.026;35.960;2023-05-29T07:06:32;4.13;;;1.08;;
75044;SDS011;63614;56.026;35.960;2023-05-29T07:09:05;1.58;;;0.90;;
75044;SDS011;63614;56.026;35.960;2023-05-29T07:11:31;2.83;;;1.10;;
75044;SDS011;63614;56.026;35.960;2023-05-29T07:14:17;9.57;;;1.10;;
75044;SDS011;63614;56.026;35.960;2023-05-29T07:16:44;11.32;;;1.40;;
75044;SDS011;63614;56.026;35.960;2023-05-29T07:19:11;2.63;;;1.02;;
75044;SDS011;63614;56.026;35.960;2023-05-29T07:21:39;2.20;;;1.10;;
75044;SDS011;63614;56.026;35.960;2023-05-29T07:24:05;6.63;;;1.27;;
75044;SDS011;63614;56.026;35.960;2023-05-29T07:26:31;3.30;;;1.10;;
75044;SDS011;63614;56.026;35.960;2023-05-29T07:28:57;3.63;;;1.17;;
75044;SDS011;63614;56.026;35.960;2023-05-29T07:31:23;6.80;;;1.10;;
75044;SDS011;63614;56.026;35.960;2023-05-29T07:33:51;9.00;;;1.08;;
75044;SDS011;63614;56.026;35.960;2023-05-29T07:36:18;2.80;;;1.02;;
75044;SDS011;63614;56.026;35.960;2023-05-29T07:38:46;2.83;;;1.08;;
75044;SDS011;63614;56.026;35.960;2023-05-29T07:41:15;3.63;;;1.08;;
75044;SDS011;63614;56.026;35.960;2023-05-29T07:43:49;2.60;;;1.15;;
75044;SDS011;63614;56.026;35.960;2023-05-29T07:46:18;1.70;;;0.90;;
75044;SDS011;63614;56.026;35.960;2023-05-29T07:48:45;2.33;;;1.13;;
75044;SDS011;63614;56.026;35.960;2023-05-29T07:51:14;3.05;;;1.30;;
75044;SDS011;63614;56.026;35.960;2023-05-29T07:53:44;3.15;;;1.13;;
75044;SDS011;63614;56.026;35.960;2023-05-29T07:56:29;3.10;;;1.27;;
75044;SDS011;63614;56.026;35.960;2023-05-29T07:58:56;4.88;;;0.90;;
75044;SDS011;63614;56.026;35.960;2023-05-29T08:01:23;2.70;;;1.20;;
75044;SDS011;63614;56.026;35.960;2023-05-29T08:03:48;3.67;;;1.20;;
75044;SDS011;63614;56.026;35.960;2023-05-29T08:06:26;4.95;;;2.00;;
75044;SDS011;63614;56.026;35.960;2023-05-29T08:09:10;2.50;;;1.23;;
75044;SDS011;63614;56.026;35.960;2023-05-29T08:11:37;9.40;;;1.20;;
75044;SDS011;63614;56.026;35.960;2023-05-29T08:16:52;4.18;;;1.00;;
75044;SDS011;63614;56.026;35.960;2023-05-29T08:19:17;5.43;;;1.20;;
75044;SDS011;63614;56.026;35.960;2023-05-29T08:21:43;8.68;;;1.40;;
75044;SDS011;63614;56.026;35.960;2023-05-29T08:24:11;4.28;;;1.60;;
75044;SDS011;63614;56.026;35.960;2023-05-29T08:26:37;6.25;;;1.20;;
75044;SDS011;63614;56.026;35.960;2023-05-29T08:29:03;7.03;;;1.35;;
75044;SDS011;63614;56.026;35.960;2023-05-29T08:31:29;3.70;;;1.23;;
75044;SDS011;63614;56.026;35.960;2023-05-29T08:33:55;5.78;;;1.20;;
75044;SDS011;63614;56.026;35.960;2023-05-29T08:36:21;4.07;;;1.15;;
75044;SDS011;63614;56.026;35.960;2023-05-29T08:38:50;7.47;;;1.50;;
75044;SDS011;63614;56.026;35.960;2023-05-29T08:44:11;8.25;;;1.30;;
75044;SDS011;63614;56.026;35.960;2023-05-29T08:46:39;5.07;;;1.00;;
75044;SDS011;63614;56.026;35.960;2023-05-29T08:49:05;12.43;;;2.00;;
75044;SDS011;63614;56.026;35.960;2023-05-29T08:51:34;11.43;;;1.30;;
75044;SDS011;63614;56.026;35.960;2023-05-29T08:54:06;2.45;;;1.08;;
75044;SDS011;63614;56.026;35.960;2023-05-29T08:56:32;8.73;;;1.70;;
75044;SDS011;63614;56.026;35.960;2023-05-29T08:59:00;6.82;;;1.33;;
75044;SDS011;63614;56.026;35.960;2023-05-29T09:01:26;3.53;;;1.30;;
75044;SDS011;63614;56.026;35.960;2023-05-29T09:03:53;8.33;;;1.30;;
75044;SDS011;63614;56.026;35.960;2023-05-29T09:06:19;13.18;;;1.42;;
75044;SDS011;63614;56.026;35.960;2023-05-29T09:11:33;4.93;;;1.33;;
75044;SDS011;63614;56.026;35.960;2023-05-29T09:13:59;3.40;;;1.20;;
75044;SDS011;63614;56.026;35.960;2023-05-29T09:16:25;3.90;;;1.10;;
75044;SDS011;63614;56.026;35.960;2023-05-29T09:18:51;3.83;;;1.40;;
75044;SDS011;63614;56.026;35.960;2023-05-29T09:21:28;3.10;;;1.20;;
75044;SDS011;63614;56.026;35.960;2023-05-29T09:24:05;4.18;;;1.20;;
75044;SDS011;63614;56.026;35.960;2023-05-29T09:26:31;3.03;;;1.20;;
75044;SDS011;63614;56.026;35.960;2023-05-29T09:28:57;6.53;;;1.30;;
75044;SDS011;63614;56.026;35.960;2023-05-29T09:31:23;7.97;;;1.30;;
75044;SDS011;63614;56.026;35.960;2023-05-29T09:34:07;2.20;;;0.90;;
75044;SDS011;63614;56.026;35.960;2023-05-29T09:36:35;2.78;;;1.20;;
75044;SDS011;63614;56.026;35.960;2023-05-29T09:39:03;2.75;;;1.02;;
75044;SDS011;63614;56.026;35.960;2023-05-29T09:41:29;3.63;;;1.20;;
75044;SDS011;63614;56.026;35.960;2023-05-29T09:43:56;9.95;;;1.25;;
75044;SDS011;63614;56.026;35.960;2023-05-29T09:46:26;5.40;;;1.25;;
75044;SDS011;63614;56.026;35.960;2023-05-29T09:48:52;7.18;;;1.25;;
75044;SDS011;63614;56.026;35.960;2023-05-29T09:51:21;1.98;;;1.15;;
75044;SDS011;63614;56.026;35.960;2023-05-29T09:53:48;6.10;;;1.10;;
75044;SDS011;63614;56.026;35.960;2023-05-29T09:56:18;8.80;;;1.10;;
75044;SDS011;63614;56.026;35.960;2023-05-29T09:58:48;2.17;;;1.08;;
75044;SDS011;63614;56.026;35.960;2023-05-29T10:01:15;2.25;;;1.02;;
75044;SDS011;63614;56.026;35.960;2023-05-29T10:03:43;4.32;;;1.17;;
75044;SDS011;63614;56.026;35.960;2023-05-29T10:06:14;3.90;;;1.15;;
75044;SDS011;63614;56.026;35.960;2023-05-29T10:08:46;2.55;;;1.38;;
75044;SDS011;63614;56.026;35.960;2023-05-29T10:11:14;13.55;;;1.20;;
75044;SDS011;63614;56.026;35.960;2023-05-29T10:13:47;7.32;;;1.10;;
75044;SDS011;63614;56.026;35.960;2023-05-29T10:16:15;5.65;;;1.13;;
75044;SDS011;63614;56.026;35.960;2023-05-29T10:18:47;3.35;;;1.02;;
75044;SDS011;63614;56.026;35.960;2023-05-29T10:21:24;3.80;;;1.30;;
75044;SDS011;63614;56.026;35.960;2023-05-29T10:23:52;5.30;;;1.30;;
75044;SDS011;63614;56.026;35.960;2023-05-29T10:26:26;11.02;;;1.35;;
75044;SDS011;63614;56.026;35.960;2023-05-29T10:29:15;4.40;;;1.20;;
75044;SDS011;63614;56.026;35.960;2023-05-29T10:34:46;3.10;;;1.10;;
75044;SDS011;63614;56.026;35.960;2023-05-29T10:37:36;3.45;;;1.02;;
75044;SDS011;63614;56.026;35.960;2023-05-29T10:40:06;1.30;;;0.90;;
75044;SDS011;63614;56.026;35.960;2023-05-29T10:42:45;2.38;;;1.13;;
75044;SDS011;63614;56.026;35.960;2023-05-29T10:45:47;4.30;;;0.98;;
75044;SDS011;63614;56.026;35.960;2023-05-29T10:50:46;5.60;;;1.00;;
75044;SDS011;63614;56.026;35.960;2023-05-29T10:53:16;2.97;;;1.17;;
75044;SDS011;63614;56.026;35.960;2023-05-29T10:55:44;2.67;;;1.10;;
75044;SDS011;63614;56.026;35.960;2023-05-29T10:58:24;3.13;;;1.00;;
75044;SDS011;63614;56.026;35.960;2023-05-29T11:01:08;5.35;;;1.20;;
75044;SDS011;63614;56.026;35.960;2023-05-29T11:03:34;8.00;;;1.50;;
75044;SDS011;63614;56.026;35.960;2023-05-29T11:06:07;5.07;;;1.30;;
75044;SDS011;63614;56.026;35.960;2023-05-29T11:08:44;6.65;;;1.10;;
75044;SDS011;63614;56.026;35.960;2023-05-29T11:13:55;2.45;;;1.42;;
75044;SDS011;63614;56.026;35.960;2023-05-29T11:18:53;7.43;;;1.23;;
75044;SDS011;63614;56.026;35.960;2023-05-29T11:23:55;13.63;;;1.20;;
75044;SDS011;63614;56.026;35.960;2023-05-29T11:26:26;5.97;;;1.10;;
75044;SDS011;63614;56.026;35.960;2023-05-29T11:28:52;2.53;;;1.25;;
75044;SDS011;63614;56.026;35.960;2023-05-29T11:31:19;5.85;;;1.20;;
75044;SDS011;63614;56.026;35.960;2023-05-29T11:33:50;3.85;;;1.15;;
75044;SDS011;63614;56.026;35.960;2023-05-29T11:36:19;3.58;;;1.20;;
75044;SDS011;63614;56.026;35.960;2023-05-29T11:39:06;3.65;;;1.20;;
75044;SDS011;63614;56.026;35.960;2023-05-29T11:41:33;3.67;;;1.35;;
75044;SDS011;63614;56.026;35.960;2023-05-29T11:44:04;2.35;;;1.13;;
75044;SDS011;63614;56.026;35.960;2023-05-29T11:46:34;5.05;;;1.30;;
75044;SDS011;63614;56.026;35.960;2023-05-29T11:49:00;2.75;;;1.10;;
75044;SDS011;63614;56.026;35.960;2023-05-29T11:53:53;2.42;;;1.20;;
75044;SDS011;63614;56.026;35.960;2023-05-29T11:56:24;3.53;;;1.35;;
75044;SDS011;63614;56.026;35.960;2023-05-29T11:58:54;6.22;;;1.27;;
75044;SDS011;63614;56.026;35.960;2023-05-29T12:01:22;2.85;;;1.10;;
75044;SDS011;63614;56.026;35.960;2023-05-29T12:03:50;2.30;;;1.08;;
75044;SDS011;63614;56.026;35.960;2023-05-29T12:06:16;2.65;;;1.17;;
75044;SDS011;63614;56.026;35.960;2023-05-29T12:08:57;2.00;;;1.10;;
75044;SDS011;63614;56.026;35.960;2023-05-29T12:11:23;8.25;;;1.48;;
75044;SDS011;63614;56.026;35.960;2023-05-29T12:14:07;3.05;;;1.20;;
75044;SDS011;63614;56.026;35.960;2023-05-29T12:16:51;16.60;;;1.55;;
75044;SDS011;63614;56.026;35.960;2023-05-29T12:19:17;2.80;;;1.15;;
75044;SDS011;63614;56.026;35.960;2023-05-29T12:21:43;5.55;;;1.30;;
75044;SDS011;63614;56.026;35.960;2023-05-29T12:24:10;7.37;;;1.23;;
75044;SDS011;63614;56.026;35.960;2023-05-29T12:26:56;5.05;;;1.25;;
75044;SDS011;63614;56.026;35.960;2023-05-29T12:29:35;2.38;;;1.25;;
75044;SDS011;63614;56.026;35.960;2023-05-29T12:32:01;2.15;;;1.13;;
75044;SDS011;63614;56.026;35.960;2023-05-29T12:34:48;4.30;;;1.40;;
75044;SDS011;63614;56.026;35.960;2023-05-29T12:37:15;2.72;;;1.20;;
75044;SDS011;63614;56.026;35.960;2023-05-29T12:40:08;10.00;;;1.50;;
75044;SDS011;63614;56.026;35.960;2023-05-29T12:42:42;5.50;;;1.35;;
75044;SDS011;63614;56.026;35.960;2023-05-29T12:45:08;11.80;;;1.55;;
75044;SDS011;63614;56.026;35.960;2023-05-29T12:47:35;3.13;;;1.10;;
75044;SDS011;63614;56.026;35.960;2023-05-29T12:50:20;2.60;;;1.30;;
75044;SDS011;63614;56.026;35.960;2023-05-29T12:52:55;11.07;;;1.73;;
75044;SDS011;63614;56.026;35.960;2023-05-29T12:55:23;10.40;;;1.52;;
75044;SDS011;63614;56.026;35.960;2023-05-29T12:57:50;6.10;;;1.33;;
75044;SDS011;63614;56.026;35.960;2023-05-29T13:00:16;4.40;;;1.30;;
75044;SDS011;63614;56.026;35.960;2023-05-29T13:05:09;4.20;;;1.70;;
75044;SDS011;63614;56.026;35.960;2023-05-29T13:07:54;3.42;;;1.38;;
75044;SDS011;63614;56.026;35.960;2023-05-29T13:10:20;5.25;;;1.50;;
75044;SDS011;63614;56.026;35.960;2023-05-29T13:12:46;5.63;;;1.57;;
75044;SDS011;63614;56.026;35.960;2023-05-29T13:15:13;2.47;;;1.25;;
75044;SDS011;63614;56.026;35.960;2023-05-29T13:17:40;6.60;;;1.55;;
75044;SDS011;63614;56.026;35.960;2023-05-29T13:20:09;6.22;;;1.50;;
75044;SDS011;63614;56.026;35.960;2023-05-29T13:22:36;7.10;;;1.55;;
75044;SDS011;63614;56.026;35.960;2023-05-29T13:25:03;3.45;;;1.45;;
75044;SDS011;63614;56.026;35.960;2023-05-29T13:27:34;10.57;;;1.55;;
75044;SDS011;63614;56.026;35.960;2023-05-29T13:30:05;9.85;;;1.35;;
75044;SDS011;63614;56.026;35.960;2023-05-29T13:32:32;3.60;;;1.40;;
75044;SDS011;63614;56.026;35.960;2023-05-29T13:35:00;5.78;;;1.48;;
75044;SDS011;63614;56.026;35.960;2023-05-29T13:37:30;4.45;;;1.77;;
75044;SDS011;63614;56.026;35.960;2023-05-29T13:39:56;3.83;;;1.40;;
75044;SDS011;63614;56.026;35.960;2023-05-29T13:42:22;7.45;;;1.63;;
75044;SDS011;63614;56.026;35.960;2023-05-29T13:44:48;8.15;;;1.98;;
75044;SDS011;63614;56.026;35.960;2023-05-29T13:47:14;10.90;;;1.60;;
75044;SDS011;63614;56.026;35.960;2023-05-29T13:49:40;3.92;;;1.35;;
75044;SDS011;63614;56.026;35.960;2023-05-29T13:52:09;13.48;;;2.03;;
75044;SDS011;63614;56.026;35.960;2023-05-29T13:54:35;3.25;;;1.40;;
75044;SDS011;63614;56.026;35.960;2023-05-29T13:57:02;9.10;;;1.38;;
75044;SDS011;63614;56.026;35.960;2023-05-29T13:59:31;14.80;;;1.50;;
75044;SDS011;63614;56.026;35.960;2023-05-29T14:01:58;7.95;;;1.50;;
75044;SDS011;63614;56.026;35.960;2023-05-29T14:04:26;5.53;;;1.20;;
75044;SDS011;63614;56.026;35.960;2023-05-29T14:06:53;2.53;;;1.27;;
75044;SDS011;63614;56.026;35.960;2023-05-29T14:09:21;6.40;;;1.38;;
75044;SDS011;63614;56.026;35.960;2023-05-29T14:11:56;5.72;;;1.40;;
75044;SDS011;63614;56.026;35.960;2023-05-29T14:14:24;6.65;;;1.48;;
75044;SDS011;63614;56.026;35.960;2023-05-29T14:16:50;5.30;;;1.63;;
75044;SDS011;63614;56.026;35.960;2023-05-29T14:19:19;4.50;;;1.48;;
75044;SDS011;63614;56.026;35.960;2023-05-29T14:21:46;7.72;;;1.30;;
75044;SDS011;63614;56.026;35.960;2023-05-29T14:24:12;3.22;;;1.40;;
75044;SDS011;63614;56.026;35.960;2023-05-29T14:26:38;2.22;;;1.20;;
75044;SDS011;63614;56.026;35.960;2023-05-29T14:29:04;5.70;;;1.58;;
75044;SDS011;63614;56.026;35.960;2023-05-29T14:31:31;8.10;;;1.35;;
75044;SDS011;63614;56.026;35.960;2023-05-29T14:33:57;4.65;;;1.20;;
75044;SDS011;63614;56.026;35.960;2023-05-29T14:36:23;2.95;;;1.70;;
75044;SDS011;63614;56.026;35.960;2023-05-29T14:38:48;7.07;;;1.48;;
75044;SDS011;63614;56.026;35.960;2023-05-29T14:41:15;4.63;;;1.30;;
75044;SDS011;63614;56.026;35.960;2023-05-29T14:43:41;14.48;;;1.50;;
75044;SDS011;63614;56.026;35.960;2023-05-29T14:46:08;6.57;;;1.40;;
75044;SDS011;63614;56.026;35.960;2023-05-29T14:48:34;4.53;;;1.60;;
75044;SDS011;63614;56.026;35.960;2023-05-29T14:51:00;8.13;;;1.33;;
75044;SDS011;63614;56.026;35.960;2023-05-29T14:53:26;13.27;;;1.42;;
75044;SDS011;63614;56.026;35.960;2023-05-29T14:55:52;4.90;;;1.30;;
75044;SDS011;63614;56.026;35.960;2023-05-29T14:58:18;10.93;;;1.58;;
75044;SDS011;63614;56.026;35.960;2023-05-29T15:00:44;8.25;;;1.38;;
75044;SDS011;63614;56.026;35.960;2023-05-29T15:03:10;5.95;;;1.60;;
75044;SDS011;63614;56.026;35.960;2023-05-29T15:05:37;14.05;;;2.08;;
75044;SDS011;63614;56.026;35.960;2023-05-29T15:08:02;7.32;;;2.03;;
75044;SDS011;63614;56.026;35.960;2023-05-29T15:10:28;2.38;;;1.30;;
75044;SDS011;63614;56.026;35.960;2023-05-29T15:12:54;3.92;;;1.50;;
75044;SDS011;63614;56.026;35.960;2023-05-29T15:15:23;5.45;;;1.30;;
75044;SDS011;63614;56.026;35.960;2023-05-29T15:17:49;7.22;;;1.60;;
75044;SDS011;63614;56.026;35.960;2023-05-29T15:20:19;10.80;;;1.33;;
75044;SDS011;63614;56.026;35.960;2023-05-29T15:25:11;13.77;;;1.88;;
75044;SDS011;63614;56.026;35.960;2023-05-29T15:27:37;10.43;;;1.70;;